Togiak, AK

4:13 AM AKST on February 09, 2016 (GMT -0900)
Togiak | | Change Station
CLOSE
Current Station
Airport
Location: Togiak,
Elevation: 20 ft
Nearby Weather Stations

Elev 20 ft 59.05 °N, 160.40 °W | Updated 17 minutes ago

Mostly Cloudy
Mostly Cloudy
34 °F
Feels Like 26 °F
N
9
Wind Variable Wind from East

Today
High -- | Low -- °F
--% Chance of Precip.
Yesterday
High -- | Low -- °F
Precip. -- in
Pressure 29.67 in
Visibility 10.0 miles
Clouds Few 2800 ft
Scattered Clouds 4900 ft
Mostly Cloudy 8500 ft
Windchill 26 °F
Dew Point 34 °F
Humidity 100%
Rainfall 0.00 in
Snow Depth Not available.
9:31 AM 6:20 PM
New Moon, 1% visible
METAR PATG 091256Z AUTO 08008KT 10SM FEW028 SCT049 BKN085 01/01 A2967 RMK AO1
Pressure 29.67 in
Visibility 10.0 miles
Clouds Few 2800 ft
Scattered Clouds 4900 ft
Mostly Cloudy 8500 ft
Windchill 26 °F
Dew Point 34 °F
Humidity 100%
Rainfall 0.00 in
Snow Depth Not available.
9:31 AM 6:20 PM
New Moon, 1% visible
METAR PATG 091256Z AUTO 08008KT 10SM FEW028 SCT049 BKN085 01/01 A2967 RMK AO1

10-Day Weather Forecast

Almanac

Astronomy

Feb. 09, 2016 Rise Set
Actual Time
Civil Twilight
Nautical Twilight
Astronomical Twilight
Moon
Length of Visible Light
Length of Day
Tomorrow will be .
, % of the Moon is Illuminated

Today's Extremes

State Highs State Lows

Community

WunderPhotos

Upload Photos

1,891,591 photos uploaded!

WunderBlog® & News

Nearby

Air Quality

  Air Quality AQ Index Pollutant
Not available.

Snow Depth

Station Depth Elevation

Earthquake Activity

City Distance Mag. Time & Date
Minimum magnitude displayed is 2.5.

Coastal Water Temperatures

Place Temperature

Stations

Nearby Weather Stations

Station Location Temp. Windchill Dew Point Humidity Wind Precip. Elev Updated Type
                   

Watches & Warnings

There are currently no watches in effect.